Time;durP1;ratioP1;P1;durP2;ratioP2;P2;SDS_P1;SDS_P2;PMS_P1;PMS_P2;Temp;Humidity;BMP_temperature;BMP_pressure;BME280_temperature;BME280_humidity;BME280_pressure;Samples;Min_cycle;Max_cycle;Signal;HPM_P1;HPM_P2
2021/11/06 00:01:01;;;;;;;18.08;14.18;;;6.50;99.90;;;;;;5039267;28;20239;-78
2021/11/06 00:03:28;;;;;;;15.02;12.52;;;6.50;99.90;;;;;;5042991;28;20264;-78
2021/11/06 00:05:55;;;;;;;17.90;13.25;;;6.30;99.90;;;;;;5042796;28;20284;-78
2021/11/06 00:08:22;;;;;;;16.33;13.27;;;6.40;99.90;;;;;;5042119;28;20213;-79
2021/11/06 00:10:49;;;;;;;15.98;13.48;;;6.30;99.90;;;;;;5047988;28;20683;-77
2021/11/06 00:13:17;;;;;;;15.60;12.82;;;6.40;99.90;;;;;;5042784;28;20291;-77
2021/11/06 00:15:46;;;;;;;14.48;12.23;;;6.40;99.90;;;;;;5038316;28;20231;-78
2021/11/06 00:18:13;;;;;;;19.30;14.40;;;6.50;99.90;;;;;;5042807;28;20270;-78
2021/11/06 00:20:40;;;;;;;13.38;12.07;;;6.40;99.90;;;;;;5043000;28;20228;-78
2021/11/06 00:23:07;;;;;;;15.30;12.90;;;6.50;99.90;;;;;;5043286;28;20239;-79
2021/11/06 00:25:34;;;;;;;16.90;12.70;;;6.50;99.90;;;;;;5041980;28;20212;-78
2021/11/06 00:28:01;;;;;;;15.32;11.43;;;6.60;99.90;;;;;;5048335;28;20198;-77
2021/11/06 00:30:28;;;;;;;15.95;13.00;;;6.60;99.90;;;;;;5044308;28;20209;-78
2021/11/06 00:32:56;;;;;;;21.15;13.45;;;6.60;99.90;;;;;;5036742;28;20204;-78
2021/11/06 00:35:24;;;;;;;14.93;12.45;;;6.70;99.90;;;;;;5037400;28;20229;-77
2021/11/06 00:37:51;;;;;;;15.60;12.90;;;6.70;99.90;;;;;;5036286;28;20704;-78
2021/11/06 00:40:18;;;;;;;15.27;12.38;;;6.70;99.90;;;;;;5037995;28;20213;-78
2021/11/06 00:42:46;;;;;;;14.90;11.65;;;6.70;99.90;;;;;;5047241;28;20245;-77
2021/11/06 00:45:13;;;;;;;16.27;12.90;;;6.60;99.90;;;;;;5055986;28;20213;-77
2021/11/06 00:47:42;;;;;;;15.75;11.70;;;6.60;99.90;;;;;;5056622;28;20210;-78
2021/11/06 00:50:15;;;;;;;14.35;11.68;;;6.60;99.90;;;;;;5056219;28;20198;-77
2021/11/06 00:52:42;;;;;;;12.57;11.20;;;6.60;99.90;;;;;;5055399;28;20225;-79
2021/11/06 00:55:09;;;;;;;13.02;10.77;;;6.70;99.90;;;;;;5055635;28;20221;-78
2021/11/06 00:57:36;;;;;;;12.68;10.95;;;6.70;99.90;;;;;;5039308;28;20209;-78
2021/11/06 01:00:05;;;;;;;13.65;10.82;;;6.60;99.90;;;;;;5034715;28;20209;-78
2021/11/06 01:02:32;;;;;;;14.95;11.23;;;6.60;99.90;;;;;;5034940;28;20235;-78
2021/11/06 01:04:59;;;;;;;13.82;11.18;;;6.70;99.90;;;;;;5034046;28;20244;-78
2021/11/06 01:07:27;;;;;;;12.27;9.80;;;6.70;99.90;;;;;;5034929;28;20251;-79
2021/11/06 01:09:54;;;;;;;13.55;10.63;;;6.70;99.90;;;;;;5034359;28;20201;-78
2021/11/06 01:12:21;;;;;;;12.90;10.30;;;6.70;99.90;;;;;;5034498;28;20212;-78
2021/11/06 01:14:48;;;;;;;11.63;10.27;;;6.80;99.90;;;;;;5034359;28;20233;-78
2021/11/06 01:17:14;;;;;;;12.57;11.05;;;6.80;99.90;;;;;;5035231;28;20305;-78
2021/11/06 01:19:41;;;;;;;12.60;9.90;;;6.80;99.90;;;;;;5036452;28;20721;-78
2021/11/06 01:22:08;;;;;;;12.55;9.30;;;6.80;99.90;;;;;;5047669;28;20233;-78
2021/11/06 01:24:36;;;;;;;13.07;10.38;;;6.80;99.90;;;;;;5052586;28;20273;-79
2021/11/06 01:27:04;;;;;;;12.38;10.05;;;6.70;99.90;;;;;;5052964;28;20572;-78
2021/11/06 01:29:31;;;;;;;14.40;12.18;;;6.70;99.90;;;;;;5046437;28;20213;-78
2021/11/06 01:31:58;;;;;;;12.55;11.25;;;6.60;99.90;;;;;;5035678;28;20216;-78
2021/11/06 01:34:25;;;;;;;14.10;11.85;;;6.50;99.90;;;;;;5034685;28;20279;-78
2021/11/06 01:36:52;;;;;;;15.07;11.77;;;6.50;99.90;;;;;;5033941;28;20327;-78
2021/11/06 01:39:19;;;;;;;18.00;12.40;;;6.50;99.90;;;;;;5033352;28;20626;-78
2021/11/06 01:41:47;;;;;;;15.80;11.77;;;6.50;99.90;;;;;;5033924;28;20219;-78
2021/11/06 01:44:14;;;;;;;15.15;11.90;;;6.50;99.90;;;;;;5033695;28;20252;-78
2021/11/06 01:46:40;;;;;;;14.43;12.35;;;6.50;99.90;;;;;;5034202;28;20208;-78
2021/11/06 01:49:07;;;;;;;14.45;11.98;;;6.40;99.90;;;;;;5033588;28;20219;-77
2021/11/06 01:51:34;;;;;;;14.23;11.52;;;6.50;99.90;;;;;;5034842;28;20203;-77
2021/11/06 01:54:01;;;;;;;13.07;9.98;;;6.40;99.90;;;;;;5033365;28;20238;-78
2021/11/06 01:56:28;;;;;;;12.18;10.88;;;6.40;99.90;;;;;;5033741;28;20258;-78
2021/11/06 01:58:57;;;;;;;15.55;11.32;;;6.30;99.90;;;;;;5033539;28;20295;-78
2021/11/06 02:01:24;;;;;;;18.25;14.02;;;6.20;99.90;;;;;;5033463;28;20212;-78
2021/11/06 02:03:50;;;;;;;15.57;12.35;;;6.20;99.90;;;;;;5033160;28;20320;-78
2021/11/06 02:06:17;;;;;;;14.55;11.68;;;6.20;99.90;;;;;;5032749;28;20220;-77
2021/11/06 02:08:44;;;;;;;14.23;10.80;;;6.20;99.90;;;;;;5043153;28;20595;-79
2021/11/06 02:11:11;;;;;;;15.85;11.52;;;6.10;99.90;;;;;;5056674;28;20208;-78
2021/11/06 02:13:38;;;;;;;15.50;11.23;;;6.10;99.90;;;;;;5056691;28;20251;-79
2021/11/06 02:16:06;;;;;;;13.25;11.43;;;6.00;99.90;;;;;;5056811;28;20250;-78
2021/11/06 02:18:33;;;;;;;12.80;10.95;;;5.90;99.90;;;;;;5052393;28;20247;-77
2021/11/06 02:21:04;;;;;;;13.07;11.25;;;5.90;99.90;;;;;;5034061;28;20638;-77
2021/11/06 02:23:35;;;;;;;15.43;11.32;;;5.80;99.90;;;;;;5033015;28;20309;-77
2021/11/06 02:26:01;;;;;;;15.43;11.73;;;5.70;99.90;;;;;;5033157;28;20234;-77
2021/11/06 02:28:29;;;;;;;14.10;11.23;;;5.70;99.90;;;;;;5032601;28;20200;-77
2021/11/06 02:30:56;;;;;;;14.60;11.25;;;5.60;99.90;;;;;;5032875;28;20298;-77
2021/11/06 02:33:23;;;;;;;14.80;11.65;;;5.60;99.90;;;;;;5037633;28;20240;-78
2021/11/06 02:35:50;;;;;;;15.00;12.07;;;5.50;99.90;;;;;;5044682;28;20231;-78
2021/11/06 02:38:18;;;;;;;16.35;11.80;;;5.50;99.90;;;;;;5037047;28;20207;-78
2021/11/06 02:40:45;;;;;;;18.02;11.82;;;5.40;99.90;;;;;;5032291;28;20215;-78
2021/11/06 02:43:12;;;;;;;14.98;11.65;;;5.30;99.90;;;;;;5032570;28;20214;-78
2021/11/06 02:45:39;;;;;;;15.23;10.57;;;5.20;99.90;;;;;;5033131;28;20207;-78
2021/11/06 02:48:07;;;;;;;14.40;11.95;;;5.10;99.90;;;;;;5033204;28;20207;-78
2021/11/06 02:50:34;;;;;;;14.93;11.73;;;5.10;99.90;;;;;;5032677;28;20217;-78
2021/11/06 02:53:01;;;;;;;16.60;11.93;;;5.10;99.90;;;;;;5032869;28;20283;-78
2021/11/06 02:55:30;;;;;;;16.30;11.25;;;5.00;99.90;;;;;;5032651;28;20234;-77
2021/11/06 02:57:58;;;;;;;15.52;11.40;;;4.90;99.90;;;;;;5032623;28;20242;-78
2021/11/06 03:00:28;;;;;;;16.38;11.90;;;4.90;99.90;;;;;;5032849;28;20623;-78
2021/11/06 03:02:55;;;;;;;15.23;11.10;;;4.80;99.90;;;;;;5033248;28;20310;-78
2021/11/06 03:05:22;;;;;;;13.98;11.00;;;4.70;99.90;;;;;;5033789;28;20238;-78
2021/11/06 03:07:49;;;;;;;15.73;11.43;;;4.70;99.90;;;;;;5036460;28;20210;-78
2021/11/06 03:10:18;;;;;;;12.60;10.38;;;4.60;99.90;;;;;;5036329;28;20211;-78
2021/11/06 03:12:47;;;;;;;16.42;12.23;;;4.60;99.90;;;;;;5036533;28;20222;-78
2021/11/06 03:15:15;;;;;;;15.65;11.50;;;4.60;99.90;;;;;;5036645;28;20223;-77
2021/11/06 03:17:42;;;;;;;15.55;11.43;;;4.50;99.90;;;;;;5036588;28;20237;-80
2021/11/06 03:20:12;;;;;;;16.00;11.70;;;4.50;99.90;;;;;;5035749;28;20218;-78
2021/11/06 03:22:39;;;;;;;16.30;11.30;;;4.40;99.90;;;;;;5036386;28;20211;-77
2021/11/06 03:25:07;;;;;;;15.10;10.93;;;4.40;99.90;;;;;;5036066;28;20601;-78
2021/11/06 03:27:34;;;;;;;15.75;11.75;;;4.30;99.90;;;;;;5036294;28;20199;-78
2021/11/06 03:30:05;;;;;;;17.70;12.07;;;4.30;99.90;;;;;;5044162;28;20255;-79
2021/11/06 03:32:32;;;;;;;14.80;11.40;;;4.20;99.90;;;;;;5057775;28;20225;-76
2021/11/06 03:34:58;;;;;;;11.98;10.07;;;4.10;99.90;;;;;;5059504;28;20254;-76
2021/11/06 03:37:26;;;;;;;15.27;11.20;;;4.10;99.90;;;;;;5058742;28;20239;-77
2021/11/06 03:39:53;;;;;;;14.70;10.50;;;4.00;99.90;;;;;;5058545;28;20195;-78
2021/11/06 03:42:19;;;;;;;15.38;11.57;;;4.00;99.90;;;;;;5059050;28;20190;-78
2021/11/06 03:44:46;;;;;;;15.93;11.93;;;3.90;99.90;;;;;;5053969;28;20230;-78
2021/11/06 03:47:14;;;;;;;15.38;10.75;;;3.90;99.90;;;;;;5046628;28;20225;-78
2021/11/06 03:49:41;;;;;;;16.52;12.57;;;3.90;99.90;;;;;;5045887;28;20242;-78
2021/11/06 03:52:08;;;;;;;15.90;11.40;;;3.80;99.90;;;;;;5043386;28;20299;-79
2021/11/06 03:54:35;;;;;;;15.95;10.82;;;3.70;99.90;;;;;;5040415;28;20313;-78
2021/11/06 03:57:02;;;;;;;14.43;10.82;;;3.70;99.90;;;;;;5040964;28;20264;-78
2021/11/06 03:59:29;;;;;;;15.27;10.18;;;3.70;99.90;;;;;;5040091;28;20217;-78
2021/11/06 04:01:56;;;;;;;19.20;12.27;;;3.70;99.90;;;;;;5039987;28;20211;-78
2021/11/06 04:04:24;;;;;;;14.18;10.85;;;3.70;99.90;;;;;;5038849;28;20231;-78
2021/11/06 04:06:51;;;;;;;19.38;11.43;;;3.70;99.90;;;;;;5038100;28;20207;-78
2021/11/06 04:09:18;;;;;;;17.05;11.85;;;3.60;99.90;;;;;;5038529;28;20210;-78
2021/11/06 04:11:45;;;;;;;21.67;11.07;;;3.50;99.90;;;;;;5038535;28;20210;-78
2021/11/06 04:14:12;;;;;;;15.70;11.48;;;3.50;99.90;;;;;;5039658;28;20242;-78
2021/11/06 04:16:39;;;;;;;16.95;10.88;;;3.50;99.90;;;;;;5039500;28;20234;-78
2021/11/06 04:19:06;;;;;;;15.40;10.80;;;3.50;99.90;;;;;;5041433;28;20227;-78
2021/11/06 04:21:34;;;;;;;13.00;9.75;;;3.50;99.90;;;;;;5042686;28;20207;-78
2021/11/06 04:24:01;;;;;;;14.05;10.32;;;3.40;99.90;;;;;;5050306;28;20747;-78
2021/11/06 04:26:28;;;;;;;13.65;10.10;;;3.40;99.90;;;;;;5049512;28;20211;-77
2021/11/06 04:28:55;;;;;;;15.07;11.00;;;3.40;99.90;;;;;;5041062;28;20253;-77
2021/11/06 04:31:22;;;;;;;16.00;10.60;;;3.40;99.90;;;;;;5035508;28;20207;-77
2021/11/06 04:33:49;;;;;;;15.50;10.80;;;3.50;99.90;;;;;;5034847;28;20700;-77
2021/11/06 04:36:16;;;;;;;14.27;9.20;;;3.50;99.90;;;;;;5035447;28;20233;-77
2021/11/06 04:38:45;;;;;;;16.02;10.18;;;3.40;99.90;;;;;;5035540;28;20234;-78
2021/11/06 04:41:11;;;;;;;14.30;9.73;;;3.30;99.90;;;;;;5035621;28;20214;-77
2021/11/06 04:43:39;;;;;;;12.93;9.90;;;3.30;99.90;;;;;;5042989;28;20402;-77
2021/11/06 04:46:06;;;;;;;14.13;9.30;;;3.20;99.90;;;;;;5044501;28;20227;-77
2021/11/06 04:48:33;;;;;;;14.18;9.70;;;3.20;99.90;;;;;;5045164;28;20199;-78
2021/11/06 04:51:00;;;;;;;14.82;10.20;;;3.20;99.90;;;;;;5043506;28;20233;-78
2021/11/06 04:53:27;;;;;;;12.20;8.93;;;3.20;99.90;;;;;;5052646;28;20223;-77
2021/11/06 04:55:55;;;;;;;13.55;9.68;;;3.20;99.90;;;;;;5053178;28;20234;-78
2021/11/06 04:58:22;;;;;;;14.65;9.70;;;3.10;99.90;;;;;;5054035;28;20192;-78
2021/11/06 05:00:49;;;;;;;17.55;10.75;;;3.20;99.90;;;;;;5048607;28;20676;-78
2021/11/06 05:03:19;;;;;;;14.25;9.40;;;3.20;99.90;;;;;;5051508;28;20234;-80
2021/11/06 05:05:46;;;;;;;18.00;11.05;;;3.20;99.90;;;;;;5035166;28;20265;-78
2021/11/06 05:08:12;;;;;;;12.57;9.40;;;3.10;99.90;;;;;;5040034;28;20203;-79
2021/11/06 05:10:40;;;;;;;12.73;10.13;;;3.10;99.90;;;;;;5037683;28;20384;-78
2021/11/06 05:13:08;;;;;;;16.95;9.10;;;3.10;99.90;;;;;;5036432;28;20301;-77
2021/11/06 05:15:35;;;;;;;11.80;9.70;;;3.10;99.90;;;;;;5035218;28;20379;-78
2021/11/06 05:18:02;;;;;;;13.13;9.93;;;3.00;99.90;;;;;;5034412;28;20280;-78
2021/11/06 05:20:31;;;;;;;14.20;9.55;;;3.00;99.90;;;;;;5034060;28;20239;-78
2021/11/06 05:22:58;;;;;;;13.55;9.32;;;3.00;99.90;;;;;;5034457;28;20215;-78
2021/11/06 05:25:24;;;;;;;11.73;9.07;;;3.00;99.90;;;;;;5034315;28;20209;-78
2021/11/06 05:27:52;;;;;;;13.73;9.25;;;3.00;99.90;;;;;;5033326;28;20204;-78
2021/11/06 05:30:20;;;;;;;14.93;8.90;;;3.10;99.90;;;;;;5033381;28;20211;-79
2021/11/06 05:32:47;;;;;;;12.13;8.77;;;3.00;99.90;;;;;;5035979;28;20242;-78
2021/11/06 05:35:15;;;;;;;13.02;9.52;;;3.10;99.90;;;;;;5039204;28;20227;-77
2021/11/06 05:37:42;;;;;;;15.18;10.10;;;3.10;99.90;;;;;;5033149;28;20227;-77
2021/11/06 05:40:10;;;;;;;13.80;9.60;;;3.00;99.90;;;;;;5033313;28;20211;-77
2021/11/06 05:42:37;;;;;;;12.38;8.70;;;3.00;99.90;;;;;;5033677;28;20369;-77
2021/11/06 05:45:06;;;;;;;12.70;9.00;;;3.00;99.90;;;;;;5032982;28;20215;-77
2021/11/06 05:47:35;;;;;;;13.23;8.95;;;2.90;99.90;;;;;;5033466;28;20211;-77
2021/11/06 05:50:02;;;;;;;11.65;8.80;;;2.80;99.90;;;;;;5037422;28;20207;-77
2021/11/06 05:52:29;;;;;;;11.00;7.90;;;2.90;99.90;;;;;;5033646;28;20621;-78
2021/11/06 05:54:55;;;;;;;13.68;9.20;;;2.90;99.90;;;;;;5033104;28;20234;-77
2021/11/06 05:57:22;;;;;;;11.88;8.80;;;2.90;99.90;;;;;;5033487;28;20343;-78
2021/11/06 05:59:49;;;;;;;13.13;8.18;;;2.90;99.90;;;;;;5033448;28;20215;-77
2021/11/06 06:02:16;;;;;;;12.45;8.60;;;2.90;99.90;;;;;;5034974;28;20289;-77
2021/11/06 06:04:44;;;;;;;11.02;8.40;;;2.90;99.90;;;;;;5035099;28;20261;-78
2021/11/06 06:07:11;;;;;;;15.40;10.18;;;2.80;99.90;;;;;;5035905;28;20270;-79
2021/11/06 06:09:38;;;;;;;13.70;9.70;;;2.80;99.90;;;;;;5035719;28;20237;-79
2021/11/06 06:12:06;;;;;;;14.65;9.90;;;2.80;99.90;;;;;;5040896;28;20207;-79
2021/11/06 06:14:33;;;;;;;12.93;9.02;;;2.70;99.90;;;;;;5039380;28;20237;-79
2021/11/06 06:16:59;;;;;;;12.57;8.63;;;2.70;99.90;;;;;;5038725;28;20241;-79
2021/11/06 06:19:26;;;;;;;13.30;9.20;;;2.70;99.90;;;;;;5033090;28;20215;-79
2021/11/06 06:21:54;;;;;;;14.32;10.32;;;2.70;99.90;;;;;;5033407;28;20740;-77
2021/11/06 06:24:21;;;;;;;12.43;8.07;;;2.60;99.90;;;;;;5033124;28;20720;-78
2021/11/06 06:26:50;;;;;;;13.70;9.50;;;2.50;99.90;;;;;;5033324;28;20286;-79
2021/11/06 06:29:17;;;;;;;15.07;9.90;;;2.50;99.90;;;;;;5033291;28;20231;-77
2021/11/06 06:31:44;;;;;;;12.73;7.80;;;2.50;99.90;;;;;;5037630;28;20580;-78
2021/11/06 06:34:10;;;;;;;11.70;9.13;;;2.50;99.90;;;;;;5039249;28;20736;-79
2021/11/06 06:36:37;;;;;;;13.27;8.38;;;2.50;99.90;;;;;;5048921;28;20215;-77
2021/11/06 06:39:05;;;;;;;14.48;9.27;;;2.50;99.90;;;;;;5049618;28;20274;-79
2021/11/06 06:41:33;;;;;;;15.55;10.45;;;2.40;99.90;;;;;;5044536;28;20347;-78
2021/11/06 06:44:00;;;;;;;15.88;10.10;;;2.50;99.90;;;;;;5050972;28;20265;-78
2021/11/06 06:46:27;;;;;;;13.68;9.20;;;2.40;99.90;;;;;;5043075;28;20202;-78
2021/11/06 06:48:54;;;;;;;14.43;10.10;;;2.40;99.90;;;;;;5043957;28;20232;-77
2021/11/06 06:51:20;;;;;;;13.68;8.57;;;2.40;99.90;;;;;;5040763;28;20211;-78
2021/11/06 06:53:48;;;;;;;13.70;9.23;;;2.40;99.90;;;;;;5043118;28;20744;-78
2021/11/06 06:56:16;;;;;;;17.63;8.93;;;2.40;99.90;;;;;;5043884;28;20213;-78
2021/11/06 06:58:43;;;;;;;13.75;8.75;;;2.50;99.90;;;;;;5041819;28;20237;-77
2021/11/06 07:01:10;;;;;;;15.57;9.30;;;2.50;99.90;;;;;;5041740;28;20271;-78
2021/11/06 07:03:37;;;;;;;15.38;9.73;;;2.50;99.90;;;;;;5047928;28;20258;-77
2021/11/06 07:06:04;;;;;;;15.05;8.63;;;2.50;99.90;;;;;;5050809;28;20306;-77
2021/11/06 07:08:31;;;;;;;13.88;9.02;;;2.50;99.90;;;;;;5050231;28;20546;-78
2021/11/06 07:10:58;;;;;;;13.02;8.32;;;2.60;99.90;;;;;;5053008;28;20271;-76
2021/11/06 07:13:27;;;;;;;13.30;9.95;;;2.60;99.90;;;;;;5055701;28;20330;-76
2021/11/06 07:15:54;;;;;;;14.10;9.30;;;2.70;99.90;;;;;;5055878;28;20187;-76
2021/11/06 07:18:20;;;;;;;12.32;9.35;;;2.70;99.90;;;;;;5054957;28;20273;-77
2021/11/06 07:20:47;;;;;;;13.13;8.95;;;2.80;99.90;;;;;;5054442;28;20191;-76
2021/11/06 07:23:14;;;;;;;15.50;9.57;;;2.90;99.90;;;;;;5055805;28;20195;-78
2021/11/06 07:25:41;;;;;;;13.70;9.63;;;2.90;99.90;;;;;;5054164;28;20203;-76
2021/11/06 07:28:08;;;;;;;12.68;9.95;;;3.00;99.90;;;;;;5055297;28;20198;-76
2021/11/06 07:30:36;;;;;;;12.25;9.95;;;3.00;99.90;;;;;;5054236;28;20214;-81
2021/11/06 07:33:03;;;;;;;16.05;11.10;;;3.00;99.90;;;;;;5054756;28;20191;-81
2021/11/06 07:35:30;;;;;;;14.27;10.25;;;3.20;99.90;;;;;;5054160;28;20223;-79
2021/11/06 07:37:57;;;;;;;16.90;11.00;;;3.20;99.90;;;;;;5053758;28;20254;-76
2021/11/06 07:40:24;;;;;;;14.35;9.55;;;3.30;99.90;;;;;;5037563;28;20212;-77
2021/11/06 07:42:51;;;;;;;14.98;10.68;;;3.40;99.90;;;;;;5033693;28;20211;-77
2021/11/06 07:45:20;;;;;;;16.58;10.73;;;3.40;99.90;;;;;;5037332;28;20280;-78
2021/11/06 07:47:48;;;;;;;12.73;9.60;;;3.40;99.90;;;;;;5036748;28;20267;-79
2021/11/06 07:50:15;;;;;;;17.77;11.50;;;3.40;99.90;;;;;;5036621;28;20239;-78
2021/11/06 07:52:42;;;;;;;16.30;10.73;;;3.60;99.90;;;;;;5038213;28;20234;-79
2021/11/06 07:55:09;;;;;;;17.88;10.40;;;3.70;99.90;;;;;;5040430;28;20231;-79
2021/11/06 07:57:36;;;;;;;17.05;10.55;;;3.80;99.90;;;;;;5040699;28;20235;-77
2021/11/06 08:00:05;;;;;;;19.85;11.50;;;3.80;99.90;;;;;;5039853;28;20274;-79
2021/11/06 08:02:34;;;;;;;14.65;9.85;;;3.90;99.90;;;;;;5038312;28;20696;-79
2021/11/06 08:05:03;;;;;;;12.18;9.45;;;3.90;99.90;;;;;;5045976;28;20235;-78
2021/11/06 08:07:30;;;;;;;15.80;10.55;;;4.00;99.90;;;;;;5041650;28;20213;-77
2021/11/06 08:09:57;;;;;;;13.93;9.27;;;4.10;99.90;;;;;;5037398;28;20214;-79
2021/11/06 08:12:24;;;;;;;12.85;10.27;;;4.20;99.90;;;;;;5036214;28;20207;-78
2021/11/06 08:14:50;;;;;;;13.55;9.10;;;4.30;99.90;;;;;;5037042;28;20743;-78
2021/11/06 08:17:18;;;;;;;15.98;10.32;;;4.30;99.90;;;;;;5045260;28;20247;-79
2021/11/06 08:19:45;;;;;;;12.77;9.27;;;4.40;99.90;;;;;;5049871;28;20234;-78
2021/11/06 08:22:13;;;;;;;17.13;10.20;;;4.40;99.90;;;;;;5040029;28;20217;-80
2021/11/06 08:24:41;;;;;;;12.43;9.52;;;4.50;99.90;;;;;;5037967;28;20253;-78
2021/11/06 08:27:08;;;;;;;14.77;9.93;;;4.40;99.90;;;;;;5036849;28;20211;-77
2021/11/06 08:29:35;;;;;;;12.98;9.40;;;4.60;99.90;;;;;;5036462;28;20275;-79
2021/11/06 08:32:03;;;;;;;14.70;9.60;;;4.60;99.90;;;;;;5035913;28;20549;-79
2021/11/06 08:34:30;;;;;;;13.48;8.45;;;4.60;99.90;;;;;;5036719;28;20252;-78
2021/11/06 08:36:57;;;;;;;13.45;9.10;;;4.80;99.90;;;;;;5040819;28;20214;-78
2021/11/06 08:39:27;;;;;;;16.00;9.02;;;4.90;99.90;;;;;;5043590;28;20203;-79
2021/11/06 08:41:55;;;;;;;13.82;8.63;;;5.00;99.90;;;;;;5047829;28;20207;-79
2021/11/06 08:44:23;;;;;;;14.32;9.13;;;5.10;99.90;;;;;;5049812;28;20242;-78
2021/11/06 08:46:52;;;;;;;11.93;9.27;;;5.10;99.90;;;;;;5050217;28;20234;-78
2021/11/06 08:49:20;;;;;;;12.13;9.30;;;5.20;99.90;;;;;;5049943;28;20210;-79
2021/11/06 08:51:48;;;;;;;12.30;8.60;;;5.20;99.90;;;;;;5048949;28;20218;-78
2021/11/06 08:54:16;;;;;;;11.25;8.55;;;5.40;99.90;;;;;;5043485;28;20598;-79
2021/11/06 08:56:45;;;;;;;10.20;7.60;;;5.40;99.90;;;;;;5045760;28;20219;-78
2021/11/06 08:59:13;;;;;;;11.45;8.65;;;5.50;99.90;;;;;;5056516;28;20219;-75
2021/11/06 09:01:39;;;;;;;10.32;7.68;;;5.60;99.90;;;;;;5058431;28;20252;-77
2021/11/06 09:04:07;;;;;;;10.73;8.50;;;5.70;99.90;;;;;;5056689;28;20275;-78
2021/11/06 09:06:34;;;;;;;13.90;9.80;;;5.70;99.90;;;;;;5056913;28;20212;-78
2021/11/06 09:09:03;;;;;;;8.98;7.90;;;5.80;99.90;;;;;;5055037;28;20284;-79
2021/11/06 09:11:30;;;;;;;17.92;11.38;;;5.90;99.00;;;;;;5051504;28;20241;-79
2021/11/06 09:13:59;;;;;;;9.70;7.40;;;5.80;97.50;;;;;;5051336;28;20270;-78
2021/11/06 09:16:27;;;;;;;39.35;16.77;;;6.00;97.10;;;;;;5048068;28;20201;-79
2021/11/06 09:18:54;;;;;;;8.60;7.60;;;5.90;95.50;;;;;;5044125;28;20239;-78
2021/11/06 09:21:24;;;;;;;8.20;6.35;;;6.00;94.90;;;;;;5045720;28;20215;-80
2021/11/06 09:23:51;;;;;;;6.93;6.18;;;6.10;94.60;;;;;;5044293;28;20233;-79
2021/11/06 09:26:19;;;;;;;9.93;6.57;;;6.20;93.80;;;;;;5043677;28;20204;-79
2021/11/06 09:28:47;;;;;;;9.27;7.03;;;6.20;92.10;;;;;;5044626;28;20200;-80
2021/11/06 09:31:17;;;;;;;10.10;6.90;;;6.20;91.50;;;;;;5043973;28;20195;-79
2021/11/06 09:33:46;;;;;;;8.20;6.55;;;6.30;91.50;;;;;;5043180;28;20299;-78
2021/11/06 09:36:13;;;;;;;7.72;6.18;;;6.30;91.30;;;;;;5043065;28;20214;-79
2021/11/06 09:38:41;;;;;;;11.10;6.88;;;6.40;91.10;;;;;;5042399;28;20290;-80
2021/11/06 09:41:10;;;;;;;8.98;7.10;;;6.50;91.20;;;;;;5042887;28;20627;-79
2021/11/06 09:43:38;;;;;;;7.93;7.05;;;6.50;88.80;;;;;;5041972;28;20318;-79
2021/11/06 09:46:08;;;;;;;11.80;7.00;;;6.40;90.00;;;;;;5042779;28;20304;-79
2021/11/06 09:48:38;;;;;;;10.05;6.80;;;6.60;90.20;;;;;;5044129;28;20210;-78
2021/11/06 09:51:05;;;;;;;7.88;7.07;;;6.80;88.00;;;;;;5044761;28;20208;-77
2021/11/06 09:53:37;;;;;;;9.00;7.20;;;6.80;87.10;;;;;;5047365;28;20254;-78
2021/11/06 09:56:05;;;;;;;11.02;7.35;;;6.90;86.50;;;;;;5043563;28;20252;-78
2021/11/06 09:58:33;;;;;;;8.88;7.15;;;7.00;86.00;;;;;;5045684;28;20224;-78
2021/11/06 10:01:00;;;;;;;8.40;6.47;;;7.20;85.10;;;;;;5045268;28;20632;-78
2021/11/06 10:03:27;;;;;;;16.08;7.40;;;7.30;84.50;;;;;;5048799;28;20294;-79
2021/11/06 10:05:57;;;;;;;9.43;6.40;;;7.40;83.50;;;;;;5050824;28;20223;-78
2021/11/06 10:08:26;;;;;;;15.70;7.95;;;7.50;82.40;;;;;;5049713;28;20614;-82
2021/11/06 10:10:54;;;;;;;9.70;7.25;;;7.60;80.50;;;;;;5047420;28;20659;-80
2021/11/06 10:13:22;;;;;;;10.65;7.70;;;7.70;80.30;;;;;;5048508;28;20265;-80
2021/11/06 10:15:51;;;;;;;12.30;8.30;;;7.80;79.70;;;;;;5048823;28;20211;-78
2021/11/06 10:18:20;;;;;;;10.00;8.35;;;7.90;79.20;;;;;;5049590;28;20222;-79
2021/11/06 10:20:49;;;;;;;9.82;8.65;;;8.00;78.60;;;;;;5053714;28;20322;-77
2021/11/06 10:23:18;;;;;;;9.27;8.27;;;8.10;78.00;;;;;;5055476;28;20212;-78
2021/11/06 10:25:45;;;;;;;10.65;8.70;;;8.10;77.20;;;;;;5054726;28;20202;-79
2021/11/06 10:28:13;;;;;;;11.02;8.80;;;8.10;76.50;;;;;;5055146;28;20213;-77
2021/11/06 10:30:43;;;;;;;10.93;8.50;;;8.20;76.40;;;;;;5052841;28;20217;-78
2021/11/06 10:33:12;;;;;;;12.27;8.50;;;8.30;75.80;;;;;;5049689;28;20225;-77
2021/11/06 10:35:41;;;;;;;9.52;8.15;;;8.40;75.90;;;;;;5046100;28;20217;-79
2021/11/06 10:38:12;;;;;;;10.32;7.85;;;8.50;76.00;;;;;;5045003;28;20277;-80
2021/11/06 10:40:43;;;;;;;8.90;8.00;;;8.50;74.60;;;;;;5044767;28;20669;-77
2021/11/06 10:43:12;;;;;;;10.13;7.68;;;8.50;74.10;;;;;;5045011;28;20214;-79
2021/11/06 10:45:44;;;;;;;10.50;8.13;;;8.60;74.30;;;;;;5042672;28;20237;-79
2021/11/06 10:48:12;;;;;;;8.25;7.45;;;8.70;74.00;;;;;;5041888;28;20209;-78
2021/11/06 10:50:58;;;;;;;11.38;8.05;;;8.70;73.00;;;;;;5041265;28;20282;-79
2021/11/06 10:53:40;;;;;;;12.15;7.88;;;8.70;72.30;;;;;;5041190;28;20687;-78
2021/11/06 10:56:31;;;;;;;10.15;8.35;;;8.60;71.50;;;;;;5042611;28;20211;-80
2021/11/06 10:59:01;;;;;;;10.18;7.57;;;8.60;72.70;;;;;;5042764;28;20588;-78
2021/11/06 11:01:30;;;;;;;8.18;7.10;;;8.70;72.60;;;;;;5043243;28;20203;-78
2021/11/06 11:04:06;;;;;;;10.60;8.57;;;8.80;72.10;;;;;;5043217;28;20248;-78
2021/11/06 11:06:44;;;;;;;10.00;8.40;;;8.80;71.70;;;;;;5044522;28;20226;-77
2021/11/06 11:09:14;;;;;;;8.63;7.55;;;8.90;72.00;;;;;;5044860;28;20249;-77
2021/11/06 11:11:42;;;;;;;11.20;8.13;;;9.00;71.40;;;;;;5044528;28;20644;-78
2021/11/06 11:14:11;;;;;;;9.13;7.07;;;8.90;71.10;;;;;;5045389;28;20230;-78
2021/11/06 11:16:40;;;;;;;9.52;7.78;;;9.00;71.20;;;;;;5045076;28;20217;-78
2021/11/06 11:19:09;;;;;;;9.23;8.07;;;9.00;70.70;;;;;;5043440;28;20231;-79
2021/11/06 11:21:40;;;;;;;9.52;8.43;;;9.00;69.70;;;;;;5045027;28;20214;-79
2021/11/06 11:24:10;;;;;;;14.38;7.93;;;9.00;70.30;;;;;;5044759;28;20596;-79
2021/11/06 11:26:39;;;;;;;10.05;7.75;;;9.10;70.40;;;;;;5045362;28;20210;-77
2021/11/06 11:29:10;;;;;;;10.15;8.05;;;9.10;70.80;;;;;;5047967;28;20207;-77
2021/11/06 11:31:38;;;;;;;9.95;8.70;;;9.20;70.20;;;;;;5047275;28;20274;-77
2021/11/06 11:34:08;;;;;;;9.48;8.13;;;9.20;69.80;;;;;;5046069;28;20255;-79
2021/11/06 11:36:37;;;;;;;10.30;8.35;;;9.10;70.00;;;;;;5044388;28;20225;-79
2021/11/06 11:39:06;;;;;;;10.00;8.55;;;9.20;70.60;;;;;;5042708;28;20237;-77
2021/11/06 11:41:58;;;;;;;9.82;8.55;;;9.30;69.40;;;;;;5045328;28;20290;-77
2021/11/06 11:45:10;;;;;;;10.18;8.57;;;9.30;69.10;;;;;;5044980;28;20302;-79
2021/11/06 11:47:43;;;;;;;9.93;8.93;;;9.30;69.50;;;;;;5044218;28;20224;-78
2021/11/06 11:50:14;;;;;;;10.40;8.80;;;9.20;69.10;;;;;;5044638;28;20729;-79
2021/11/06 11:52:43;;;;;;;10.93;8.20;;;9.20;68.40;;;;;;5046115;28;20217;-78
2021/11/06 11:55:12;;;;;;;9.32;7.85;;;9.30;69.20;;;;;;5043440;28;20470;-78
2021/11/06 11:57:41;;;;;;;11.40;8.98;;;9.30;69.00;;;;;;5044581;28;20716;-78
2021/11/06 12:00:37;;;;;;;10.80;8.98;;;9.40;68.00;;;;;;5044142;28;20673;-79
2021/11/06 12:03:07;;;;;;;9.90;8.90;;;9.40;68.00;;;;;;5044279;28;20298;-79
2021/11/06 12:05:37;;;;;;;10.77;8.45;;;9.50;68.10;;;;;;5044238;28;20272;-78
2021/11/06 12:08:34;;;;;;;9.80;8.30;;;9.60;68.20;;;;;;5042942;28;20207;-77
2021/11/06 12:11:26;;;;;;;11.85;9.95;;;9.60;68.20;;;;;;5011762;28;20615;-78
2021/11/06 12:13:56;;;;;;;11.75;9.20;;;9.70;68.30;;;;;;5048257;28;20223;-76
2021/11/06 12:16:26;;;;;;;11.63;9.40;;;9.80;66.70;;;;;;5050326;28;20235;-77
2021/11/06 12:18:59;;;;;;;10.85;8.60;;;9.80;67.00;;;;;;5053233;28;20227;-78
2021/11/06 12:21:35;;;;;;;12.05;9.52;;;9.90;65.80;;;;;;5053626;28;20191;-77
2021/11/06 12:24:28;;;;;;;11.40;9.40;;;9.90;65.50;;;;;;5052245;28;20242;-80
2021/11/06 12:27:00;;;;;;;11.20;8.80;;;10.00;64.20;;;;;;5053958;28;20234;-77
2021/11/06 12:29:30;;;;;;;12.50;8.40;;;10.00;64.30;;;;;;5059212;28;20187;-76
2021/11/06 12:32:22;;;;;;;11.27;8.98;;;10.00;63.80;;;;;;5058566;28;20213;-77
2021/11/06 12:34:52;;;;;;;11.95;8.15;;;10.10;63.90;;;;;;5057176;28;20247;-80
2021/11/06 12:37:48;;;;;;;10.13;8.68;;;10.20;63.70;;;;;;5051292;28;20219;-78
2021/11/06 12:40:21;;;;;;;11.27;8.68;;;10.20;63.30;;;;;;5044246;28;20243;-79
2021/11/06 12:43:06;;;;;;;9.18;7.65;;;10.30;62.60;;;;;;5050843;28;20223;-78
2021/11/06 12:45:33;;;;;;;11.07;8.98;;;10.20;62.80;;;;;;5054123;28;20234;-78
2021/11/06 12:48:08;;;;;;;17.02;10.43;;;10.30;63.20;;;;;;5058298;28;20203;-78
2021/11/06 12:50:37;;;;;;;13.25;9.50;;;10.30;63.00;;;;;;5056300;28;20262;-78